sensor_id;sensor_type;location;lat;lon;timestamp;temperature;humidity
16102;DHT22;56411;52.964;10.540;2022-09-03T00:00:06;14.70;99.90
16102;DHT22;56411;52.964;10.540;2022-09-03T00:02:38;14.70;99.90
16102;DHT22;56411;52.964;10.540;2022-09-03T00:05:13;14.70;99.90
16102;DHT22;56411;52.964;10.540;2022-09-03T00:07:48;14.70;99.90
16102;DHT22;56411;52.964;10.540;2022-09-03T00:10:23;14.70;99.90
16102;DHT22;56411;52.964;10.540;2022-09-03T00:12:56;14.70;99.90
16102;DHT22;56411;52.964;10.540;2022-09-03T00:15:24;14.70;99.90
16102;DHT22;56411;52.964;10.540;2022-09-03T00:17:54;14.80;99.90
16102;DHT22;56411;52.964;10.540;2022-09-03T00:20:27;14.80;99.90
16102;DHT22;56411;52.964;10.540;2022-09-03T00:23:00;14.80;99.90
16102;DHT22;56411;52.964;10.540;2022-09-03T00:25:37;14.80;99.90
16102;DHT22;56411;52.964;10.540;2022-09-03T00:28:08;14.70;99.90
16102;DHT22;56411;52.964;10.540;2022-09-03T00:30:38;14.70;99.90
16102;DHT22;56411;52.964;10.540;2022-09-03T00:33:09;14.70;99.90
16102;DHT22;56411;52.964;10.540;2022-09-03T00:35:43;14.60;99.90
16102;DHT22;56411;52.964;10.540;2022-09-03T00:38:13;14.60;99.90
16102;DHT22;56411;52.964;10.540;2022-09-03T00:40:54;14.50;99.90
16102;DHT22;56411;52.964;10.540;2022-09-03T00:43:30;14.50;99.90
16102;DHT22;56411;52.964;10.540;2022-09-03T00:46:05;14.40;99.90
16102;DHT22;56411;52.964;10.540;2022-09-03T00:48:45;14.30;99.90
16102;DHT22;56411;52.964;10.540;2022-09-03T00:51:22;14.30;99.90
16102;DHT22;56411;52.964;10.540;2022-09-03T00:53:59;14.30;99.90
16102;DHT22;56411;52.964;10.540;2022-09-03T00:56:35;14.20;99.90
16102;DHT22;56411;52.964;10.540;2022-09-03T00:59:16;14.20;99.90
16102;DHT22;56411;52.964;10.540;2022-09-03T01:01:50;14.20;99.90
16102;DHT22;56411;52.964;10.540;2022-09-03T01:04:28;14.10;99.90
16102;DHT22;56411;52.964;10.540;2022-09-03T01:07:04;14.00;99.90
16102;DHT22;56411;52.964;10.540;2022-09-03T01:09:46;14.00;99.90
16102;DHT22;56411;52.964;10.540;2022-09-03T01:12:22;14.00;99.90
16102;DHT22;56411;52.964;10.540;2022-09-03T01:15:03;13.90;99.90
16102;DHT22;56411;52.964;10.540;2022-09-03T01:17:47;13.80;99.90
16102;DHT22;56411;52.964;10.540;2022-09-03T01:20:26;13.80;99.90
16102;DHT22;56411;52.964;10.540;2022-09-03T01:26:09;13.70;99.90
16102;DHT22;56411;52.964;10.540;2022-09-03T01:28:48;13.60;99.90
16102;DHT22;56411;52.964;10.540;2022-09-03T01:31:27;13.60;99.90
16102;DHT22;56411;52.964;10.540;2022-09-03T01:34:07;13.60;99.90
16102;DHT22;56411;52.964;10.540;2022-09-03T01:36:44;13.60;99.90
16102;DHT22;56411;52.964;10.540;2022-09-03T01:39:17;13.50;99.90
16102;DHT22;56411;52.964;10.540;2022-09-03T01:41:57;13.50;99.90
16102;DHT22;56411;52.964;10.540;2022-09-03T01:44:56;13.40;99.90
16102;DHT22;56411;52.964;10.540;2022-09-03T01:47:36;13.40;99.90
16102;DHT22;56411;52.964;10.540;2022-09-03T01:50:15;13.40;99.90
16102;DHT22;56411;52.964;10.540;2022-09-03T01:52:51;13.30;99.90
16102;DHT22;56411;52.964;10.540;2022-09-03T01:55:29;13.40;99.90
16102;DHT22;56411;52.964;10.540;2022-09-03T01:58:01;13.30;99.90
16102;DHT22;56411;52.964;10.540;2022-09-03T02:00:36;13.30;99.90
16102;DHT22;56411;52.964;10.540;2022-09-03T02:03:06;13.30;99.90
16102;DHT22;56411;52.964;10.540;2022-09-03T02:05:35;13.20;99.90
16102;DHT22;56411;52.964;10.540;2022-09-03T02:08:04;13.20;99.90
16102;DHT22;56411;52.964;10.540;2022-09-03T02:10:37;13.20;99.90
16102;DHT22;56411;52.964;10.540;2022-09-03T02:13:08;13.20;99.90
16102;DHT22;56411;52.964;10.540;2022-09-03T02:15:40;13.10;99.90
16102;DHT22;56411;52.964;10.540;2022-09-03T02:18:14;13.10;99.90
16102;DHT22;56411;52.964;10.540;2022-09-03T02:20:42;13.00;99.90
16102;DHT22;56411;52.964;10.540;2022-09-03T02:23:10;13.00;99.90
16102;DHT22;56411;52.964;10.540;2022-09-03T02:25:40;12.90;99.90
16102;DHT22;56411;52.964;10.540;2022-09-03T02:28:08;12.90;99.90
16102;DHT22;56411;52.964;10.540;2022-09-03T02:30:37;12.80;99.90
16102;DHT22;56411;52.964;10.540;2022-09-03T02:33:04;12.80;99.90
16102;DHT22;56411;52.964;10.540;2022-09-03T02:35:31;12.70;99.90
16102;DHT22;56411;52.964;10.540;2022-09-03T02:38:08;12.70;99.90
16102;DHT22;56411;52.964;10.540;2022-09-03T02:40:36;12.60;99.90
16102;DHT22;56411;52.964;10.540;2022-09-03T02:43:05;12.60;99.90
16102;DHT22;56411;52.964;10.540;2022-09-03T02:45:36;12.70;99.90
16102;DHT22;56411;52.964;10.540;2022-09-03T02:48:08;12.60;99.90
16102;DHT22;56411;52.964;10.540;2022-09-03T02:50:40;12.60;99.90
16102;DHT22;56411;52.964;10.540;2022-09-03T02:53:07;12.70;99.90
16102;DHT22;56411;52.964;10.540;2022-09-03T02:55:34;12.60;99.90
16102;DHT22;56411;52.964;10.540;2022-09-03T02:58:01;12.50;99.90
16102;DHT22;56411;52.964;10.540;2022-09-03T03:00:30;12.40;99.90
16102;DHT22;56411;52.964;10.540;2022-09-03T03:02:58;12.30;99.90
16102;DHT22;56411;52.964;10.540;2022-09-03T03:05:30;12.20;99.90
16102;DHT22;56411;52.964;10.540;2022-09-03T03:08:02;12.30;99.90
16102;DHT22;56411;52.964;10.540;2022-09-03T03:10:29;12.20;99.90
16102;DHT22;56411;52.964;10.540;2022-09-03T03:12:55;12.20;99.90
16102;DHT22;56411;52.964;10.540;2022-09-03T03:15:22;12.10;99.90
16102;DHT22;56411;52.964;10.540;2022-09-03T03:17:49;12.10;99.90
16102;DHT22;56411;52.964;10.540;2022-09-03T03:20:17;12.10;99.90
16102;DHT22;56411;52.964;10.540;2022-09-03T03:22:44;12.10;99.90
16102;DHT22;56411;52.964;10.540;2022-09-03T03:25:11;12.10;99.90
16102;DHT22;56411;52.964;10.540;2022-09-03T03:27:38;12.10;99.90
16102;DHT22;56411;52.964;10.540;2022-09-03T03:30:08;12.10;99.90
16102;DHT22;56411;52.964;10.540;2022-09-03T03:32:35;12.10;99.90
16102;DHT22;56411;52.964;10.540;2022-09-03T03:35:03;12.00;99.90
16102;DHT22;56411;52.964;10.540;2022-09-03T03:37:32;12.00;99.90
16102;DHT22;56411;52.964;10.540;2022-09-03T03:40:00;11.90;99.90
16102;DHT22;56411;52.964;10.540;2022-09-03T03:42:27;11.90;99.90
16102;DHT22;56411;52.964;10.540;2022-09-03T03:44:54;11.90;99.90
16102;DHT22;56411;52.964;10.540;2022-09-03T03:47:20;11.90;99.90
16102;DHT22;56411;52.964;10.540;2022-09-03T03:49:47;11.80;99.90
16102;DHT22;56411;52.964;10.540;2022-09-03T03:52:14;11.80;99.90
16102;DHT22;56411;52.964;10.540;2022-09-03T03:54:42;11.80;99.90
16102;DHT22;56411;52.964;10.540;2022-09-03T03:57:09;11.80;99.90
16102;DHT22;56411;52.964;10.540;2022-09-03T03:59:37;11.80;99.90
16102;DHT22;56411;52.964;10.540;2022-09-03T04:02:04;11.70;99.90
16102;DHT22;56411;52.964;10.540;2022-09-03T04:04:31;11.70;99.90
16102;DHT22;56411;52.964;10.540;2022-09-03T04:06:58;11.70;99.90
16102;DHT22;56411;52.964;10.540;2022-09-03T04:09:25;11.70;99.90
16102;DHT22;56411;52.964;10.540;2022-09-03T04:11:53;11.70;99.90
16102;DHT22;56411;52.964;10.540;2022-09-03T04:14:22;11.60;99.90
16102;DHT22;56411;52.964;10.540;2022-09-03T04:16:49;11.60;99.90
16102;DHT22;56411;52.964;10.540;2022-09-03T04:19:16;11.60;99.90
16102;DHT22;56411;52.964;10.540;2022-09-03T04:21:44;11.50;99.90
16102;DHT22;56411;52.964;10.540;2022-09-03T04:24:11;11.50;99.90
16102;DHT22;56411;52.964;10.540;2022-09-03T04:26:38;11.50;99.90
16102;DHT22;56411;52.964;10.540;2022-09-03T04:29:08;11.40;99.90
16102;DHT22;56411;52.964;10.540;2022-09-03T04:31:36;11.40;99.90
16102;DHT22;56411;52.964;10.540;2022-09-03T04:34:04;11.30;99.90
16102;DHT22;56411;52.964;10.540;2022-09-03T04:36:31;11.30;99.90
16102;DHT22;56411;52.964;10.540;2022-09-03T04:39:00;11.30;99.90
16102;DHT22;56411;52.964;10.540;2022-09-03T04:41:28;11.30;99.90
16102;DHT22;56411;52.964;10.540;2022-09-03T04:43:57;11.30;99.90
16102;DHT22;56411;52.964;10.540;2022-09-03T04:46:27;11.20;99.90
16102;DHT22;56411;52.964;10.540;2022-09-03T04:48:57;11.30;99.90
16102;DHT22;56411;52.964;10.540;2022-09-03T04:51:26;11.20;99.90
16102;DHT22;56411;52.964;10.540;2022-09-03T04:53:54;11.20;99.90
16102;DHT22;56411;52.964;10.540;2022-09-03T04:56:23;11.30;99.90
16102;DHT22;56411;52.964;10.540;2022-09-03T04:58:54;11.30;99.90
16102;DHT22;56411;52.964;10.540;2022-09-03T05:01:22;11.40;99.90
16102;DHT22;56411;52.964;10.540;2022-09-03T05:03:51;11.40;99.90
16102;DHT22;56411;52.964;10.540;2022-09-03T05:06:18;11.40;99.90
16102;DHT22;56411;52.964;10.540;2022-09-03T05:08:47;11.40;99.90
16102;DHT22;56411;52.964;10.540;2022-09-03T05:11:14;11.40;99.90
16102;DHT22;56411;52.964;10.540;2022-09-03T05:13:41;11.50;99.90
16102;DHT22;56411;52.964;10.540;2022-09-03T05:16:10;11.60;99.90
16102;DHT22;56411;52.964;10.540;2022-09-03T05:18:37;11.60;99.90
16102;DHT22;56411;52.964;10.540;2022-09-03T05:21:09;11.60;99.90
16102;DHT22;56411;52.964;10.540;2022-09-03T05:23:38;11.70;99.90
16102;DHT22;56411;52.964;10.540;2022-09-03T05:26:09;11.70;99.90
16102;DHT22;56411;52.964;10.540;2022-09-03T05:28:38;11.70;99.90
16102;DHT22;56411;52.964;10.540;2022-09-03T05:31:07;11.70;99.90
16102;DHT22;56411;52.964;10.540;2022-09-03T05:33:35;11.80;99.90
16102;DHT22;56411;52.964;10.540;2022-09-03T05:36:04;11.90;99.90
16102;DHT22;56411;52.964;10.540;2022-09-03T05:38:33;11.90;99.90
16102;DHT22;56411;52.964;10.540;2022-09-03T05:41:01;12.00;99.90
16102;DHT22;56411;52.964;10.540;2022-09-03T05:43:29;12.00;99.90
16102;DHT22;56411;52.964;10.540;2022-09-03T05:45:57;12.10;99.90
16102;DHT22;56411;52.964;10.540;2022-09-03T05:48:25;12.10;99.90
16102;DHT22;56411;52.964;10.540;2022-09-03T05:50:58;12.10;99.90
16102;DHT22;56411;52.964;10.540;2022-09-03T05:53:26;12.10;99.90
16102;DHT22;56411;52.964;10.540;2022-09-03T05:55:59;12.20;99.90
16102;DHT22;56411;52.964;10.540;2022-09-03T05:58:29;12.20;99.90
16102;DHT22;56411;52.964;10.540;2022-09-03T06:00:56;12.30;99.90
16102;DHT22;56411;52.964;10.540;2022-09-03T06:03:23;12.30;99.90
16102;DHT22;56411;52.964;10.540;2022-09-03T06:05:50;12.40;99.90
16102;DHT22;56411;52.964;10.540;2022-09-03T06:08:19;12.40;99.90
16102;DHT22;56411;52.964;10.540;2022-09-03T06:10:46;12.50;99.90
16102;DHT22;56411;52.964;10.540;2022-09-03T06:13:14;12.60;99.90
16102;DHT22;56411;52.964;10.540;2022-09-03T06:15:41;12.60;99.90
16102;DHT22;56411;52.964;10.540;2022-09-03T06:18:08;12.80;99.90
16102;DHT22;56411;52.964;10.540;2022-09-03T06:20:35;12.80;99.90
16102;DHT22;56411;52.964;10.540;2022-09-03T06:23:02;12.90;99.90
16102;DHT22;56411;52.964;10.540;2022-09-03T06:25:29;13.00;99.90
16102;DHT22;56411;52.964;10.540;2022-09-03T06:27:57;13.10;99.90
16102;DHT22;56411;52.964;10.540;2022-09-03T06:30:25;13.20;99.90
16102;DHT22;56411;52.964;10.540;2022-09-03T06:32:52;13.30;99.90
16102;DHT22;56411;52.964;10.540;2022-09-03T06:35:19;13.30;99.90
16102;DHT22;56411;52.964;10.540;2022-09-03T06:37:46;13.40;99.90
16102;DHT22;56411;52.964;10.540;2022-09-03T06:40:13;13.40;99.90
16102;DHT22;56411;52.964;10.540;2022-09-03T06:42:55;13.50;99.90
16102;DHT22;56411;52.964;10.540;2022-09-03T06:45:27;13.50;99.90
16102;DHT22;56411;52.964;10.540;2022-09-03T06:47:54;13.60;99.90
16102;DHT22;56411;52.964;10.540;2022-09-03T06:50:23;13.70;99.90
16102;DHT22;56411;52.964;10.540;2022-09-03T06:52:51;13.80;99.90
16102;DHT22;56411;52.964;10.540;2022-09-03T06:55:19;13.80;99.90
16102;DHT22;56411;52.964;10.540;2022-09-03T06:57:47;14.00;99.90
16102;DHT22;56411;52.964;10.540;2022-09-03T07:00:15;14.10;99.90
16102;DHT22;56411;52.964;10.540;2022-09-03T07:02:44;14.10;99.90
16102;DHT22;56411;52.964;10.540;2022-09-03T07:05:13;14.20;99.90
16102;DHT22;56411;52.964;10.540;2022-09-03T07:07:40;14.30;99.90
16102;DHT22;56411;52.964;10.540;2022-09-03T07:10:09;14.30;99.90
16102;DHT22;56411;52.964;10.540;2022-09-03T07:12:38;14.40;99.90
16102;DHT22;56411;52.964;10.540;2022-09-03T07:15:06;14.50;99.90
16102;DHT22;56411;52.964;10.540;2022-09-03T07:17:33;14.60;99.90
16102;DHT22;56411;52.964;10.540;2022-09-03T07:20:02;14.70;99.90
16102;DHT22;56411;52.964;10.540;2022-09-03T07:22:29;14.80;99.90
16102;DHT22;56411;52.964;10.540;2022-09-03T07:24:56;14.90;99.90
16102;DHT22;56411;52.964;10.540;2022-09-03T07:27:23;14.90;99.90
16102;DHT22;56411;52.964;10.540;2022-09-03T07:29:50;15.00;99.90
16102;DHT22;56411;52.964;10.540;2022-09-03T07:32:17;15.00;99.90
16102;DHT22;56411;52.964;10.540;2022-09-03T07:34:44;15.10;99.90
16102;DHT22;56411;52.964;10.540;2022-09-03T07:37:13;15.20;99.90
16102;DHT22;56411;52.964;10.540;2022-09-03T07:39:43;15.20;99.90
16102;DHT22;56411;52.964;10.540;2022-09-03T07:42:11;15.30;99.90
16102;DHT22;56411;52.964;10.540;2022-09-03T07:44:38;15.30;99.90
16102;DHT22;56411;52.964;10.540;2022-09-03T07:47:05;15.40;99.90
16102;DHT22;56411;52.964;10.540;2022-09-03T07:49:32;15.50;99.90
16102;DHT22;56411;52.964;10.540;2022-09-03T07:51:59;15.60;99.90
16102;DHT22;56411;52.964;10.540;2022-09-03T07:54:28;15.70;99.90
16102;DHT22;56411;52.964;10.540;2022-09-03T07:56:56;15.70;99.90
16102;DHT22;56411;52.964;10.540;2022-09-03T07:59:23;15.80;99.90
16102;DHT22;56411;52.964;10.540;2022-09-03T08:01:50;15.90;99.90
16102;DHT22;56411;52.964;10.540;2022-09-03T08:04:17;15.90;99.90
16102;DHT22;56411;52.964;10.540;2022-09-03T08:06:45;16.00;99.90
16102;DHT22;56411;52.964;10.540;2022-09-03T08:09:12;16.00;99.90
16102;DHT22;56411;52.964;10.540;2022-09-03T08:11:42;16.10;99.90
16102;DHT22;56411;52.964;10.540;2022-09-03T08:14:11;16.20;99.90
16102;DHT22;56411;52.964;10.540;2022-09-03T08:16:39;16.30;99.90
16102;DHT22;56411;52.964;10.540;2022-09-03T08:19:07;16.40;99.90
16102;DHT22;56411;52.964;10.540;2022-09-03T08:21:34;16.50;99.90
16102;DHT22;56411;52.964;10.540;2022-09-03T08:24:01;16.60;99.90
16102;DHT22;56411;52.964;10.540;2022-09-03T08:26:29;16.60;99.90
16102;DHT22;56411;52.964;10.540;2022-09-03T08:28:58;16.70;99.90
16102;DHT22;56411;52.964;10.540;2022-09-03T08:31:26;16.80;99.90
16102;DHT22;56411;52.964;10.540;2022-09-03T08:33:55;16.80;99.90
16102;DHT22;56411;52.964;10.540;2022-09-03T08:36:24;16.90;99.90
16102;DHT22;56411;52.964;10.540;2022-09-03T08:38:53;17.00;99.90
16102;DHT22;56411;52.964;10.540;2022-09-03T08:41:27;17.10;99.90
16102;DHT22;56411;52.964;10.540;2022-09-03T08:44:17;17.10;99.90
16102;DHT22;56411;52.964;10.540;2022-09-03T08:46:49;17.20;99.90
16102;DHT22;56411;52.964;10.540;2022-09-03T08:49:22;17.30;99.90
16102;DHT22;56411;52.964;10.540;2022-09-03T08:51:51;17.40;99.90
16102;DHT22;56411;52.964;10.540;2022-09-03T08:54:24;17.50;99.90
16102;DHT22;56411;52.964;10.540;2022-09-03T08:56:53;17.50;99.90
16102;DHT22;56411;52.964;10.540;2022-09-03T08:59:22;17.60;99.90
16102;DHT22;56411;52.964;10.540;2022-09-03T09:01:56;17.70;99.90
16102;DHT22;56411;52.964;10.540;2022-09-03T09:04:35;17.80;99.90
16102;DHT22;56411;52.964;10.540;2022-09-03T09:07:10;18.00;99.90
16102;DHT22;56411;52.964;10.540;2022-09-03T09:09:45;18.10;99.90
16102;DHT22;56411;52.964;10.540;2022-09-03T09:12:22;18.20;99.90
16102;DHT22;56411;52.964;10.540;2022-09-03T09:15:03;18.20;99.90
16102;DHT22;56411;52.964;10.540;2022-09-03T09:17:54;18.40;99.90
16102;DHT22;56411;52.964;10.540;2022-09-03T09:20:32;18.50;99.90
16102;DHT22;56411;52.964;10.540;2022-09-03T09:23:03;18.60;99.90
16102;DHT22;56411;52.964;10.540;2022-09-03T09:25:33;18.60;99.90
16102;DHT22;56411;52.964;10.540;2022-09-03T09:28:18;18.80;99.90
16102;DHT22;56411;52.964;10.540;2022-09-03T09:30:48;18.80;99.90
16102;DHT22;56411;52.964;10.540;2022-09-03T09:33:17;18.90;99.90
16102;DHT22;56411;52.964;10.540;2022-09-03T09:35:45;18.90;99.90
16102;DHT22;56411;52.964;10.540;2022-09-03T09:38:13;19.00;99.90
16102;DHT22;56411;52.964;10.540;2022-09-03T09:40:42;19.10;99.90
16102;DHT22;56411;52.964;10.540;2022-09-03T09:43:11;19.20;99.90
16102;DHT22;56411;52.964;10.540;2022-09-03T09:45:42;19.30;99.90
16102;DHT22;56411;52.964;10.540;2022-09-03T09:48:19;19.50;99.90
16102;DHT22;56411;52.964;10.540;2022-09-03T09:50:46;19.70;99.90
16102;DHT22;56411;52.964;10.540;2022-09-03T09:53:16;19.90;99.90
16102;DHT22;56411;52.964;10.540;2022-09-03T09:55:51;20.00;99.90
16102;DHT22;56411;52.964;10.540;2022-09-03T09:58:22;20.10;99.90
16102;DHT22;56411;52.964;10.540;2022-09-03T10:00:58;20.10;99.90
16102;DHT22;56411;52.964;10.540;2022-09-03T10:03:29;20.20;99.90
16102;DHT22;56411;52.964;10.540;2022-09-03T10:06:07;20.30;99.90
16102;DHT22;56411;52.964;10.540;2022-09-03T10:08:54;20.40;99.90
16102;DHT22;56411;52.964;10.540;2022-09-03T10:11:31;20.40;99.90
16102;DHT22;56411;52.964;10.540;2022-09-03T10:14:02;20.60;99.90
16102;DHT22;56411;52.964;10.540;2022-09-03T10:16:35;20.80;99.90
16102;DHT22;56411;52.964;10.540;2022-09-03T10:19:10;21.00;99.90
16102;DHT22;56411;52.964;10.540;2022-09-03T10:21:46;21.10;99.90
16102;DHT22;56411;52.964;10.540;2022-09-03T10:24:37;21.30;99.90
16102;DHT22;56411;52.964;10.540;2022-09-03T10:27:08;21.40;99.90
16102;DHT22;56411;52.964;10.540;2022-09-03T10:29:39;21.60;99.90
16102;DHT22;56411;52.964;10.540;2022-09-03T10:32:28;21.80;99.90
16102;DHT22;56411;52.964;10.540;2022-09-03T10:35:04;22.00;99.90
16102;DHT22;56411;52.964;10.540;2022-09-03T10:37:36;22.00;99.90
16102;DHT22;56411;52.964;10.540;2022-09-03T10:40:14;22.20;99.90
16102;DHT22;56411;52.964;10.540;2022-09-03T10:42:54;22.60;99.90
16102;DHT22;56411;52.964;10.540;2022-09-03T10:45:31;22.90;99.90
16102;DHT22;56411;52.964;10.540;2022-09-03T10:48:15;23.40;99.90
16102;DHT22;56411;52.964;10.540;2022-09-03T10:50:51;23.90;99.90
16102;DHT22;56411;52.964;10.540;2022-09-03T10:56:12;24.70;97.60
16102;DHT22;56411;52.964;10.540;2022-09-03T10:58:53;25.10;96.70
16102;DHT22;56411;52.964;10.540;2022-09-03T11:01:29;25.70;95.00
16102;DHT22;56411;52.964;10.540;2022-09-03T11:07:00;25.30;93.10
16102;DHT22;56411;52.964;10.540;2022-09-03T11:09:35;24.90;93.50
16102;DHT22;56411;52.964;10.540;2022-09-03T11:12:07;25.50;93.20
16102;DHT22;56411;52.964;10.540;2022-09-03T11:14:39;25.80;91.50
16102;DHT22;56411;52.964;10.540;2022-09-03T11:17:11;26.20;90.40
16102;DHT22;56411;52.964;10.540;2022-09-03T11:19:45;25.90;89.70
16102;DHT22;56411;52.964;10.540;2022-09-03T11:22:17;25.30;90.50
16102;DHT22;56411;52.964;10.540;2022-09-03T11:24:50;25.20;91.20
16102;DHT22;56411;52.964;10.540;2022-09-03T11:27:29;26.20;90.50
16102;DHT22;56411;52.964;10.540;2022-09-03T11:30:02;27.20;89.40
16102;DHT22;56411;52.964;10.540;2022-09-03T11:32:43;28.20;88.00
16102;DHT22;56411;52.964;10.540;2022-09-03T11:35:15;28.90;86.20
16102;DHT22;56411;52.964;10.540;2022-09-03T11:37:52;28.40;84.00
16102;DHT22;56411;52.964;10.540;2022-09-03T11:40:30;28.00;84.60
16102;DHT22;56411;52.964;10.540;2022-09-03T11:43:06;28.30;82.80
16102;DHT22;56411;52.964;10.540;2022-09-03T11:45:36;28.60;81.80
16102;DHT22;56411;52.964;10.540;2022-09-03T11:48:17;29.10;80.30
16102;DHT22;56411;52.964;10.540;2022-09-03T11:50:52;29.40;79.90
16102;DHT22;56411;52.964;10.540;2022-09-03T11:53:26;29.60;78.20
16102;DHT22;56411;52.964;10.540;2022-09-03T11:56:00;29.70;77.80
16102;DHT22;56411;52.964;10.540;2022-09-03T11:58:30;28.90;78.30
16102;DHT22;56411;52.964;10.540;2022-09-03T12:01:01;28.20;79.40
16102;DHT22;56411;52.964;10.540;2022-09-03T12:03:36;27.90;80.70
16102;DHT22;56411;52.964;10.540;2022-09-03T12:06:30;27.30;81.40
16102;DHT22;56411;52.964;10.540;2022-09-03T12:09:11;26.70;81.00
16102;DHT22;56411;52.964;10.540;2022-09-03T12:11:52;26.90;81.20
16102;DHT22;56411;52.964;10.540;2022-09-03T12:14:29;27.90;81.20
16102;DHT22;56411;52.964;10.540;2022-09-03T12:17:16;27.60;78.80
16102;DHT22;56411;52.964;10.540;2022-09-03T12:19:50;26.60;79.90
16102;DHT22;56411;52.964;10.540;2022-09-03T12:22:19;25.60;81.50
16102;DHT22;56411;52.964;10.540;2022-09-03T12:24:47;25.50;83.10
16102;DHT22;56411;52.964;10.540;2022-09-03T12:27:18;26.50;81.20
16102;DHT22;56411;52.964;10.540;2022-09-03T12:29:52;28.10;79.90
16102;DHT22;56411;52.964;10.540;2022-09-03T12:32:23;27.80;77.40
16102;DHT22;56411;52.964;10.540;2022-09-03T12:34:50;27.00;78.50
16102;DHT22;56411;52.964;10.540;2022-09-03T12:37:19;26.80;78.00
16102;DHT22;56411;52.964;10.540;2022-09-03T12:39:53;27.20;77.30
16102;DHT22;56411;52.964;10.540;2022-09-03T12:42:27;27.70;76.80
16102;DHT22;56411;52.964;10.540;2022-09-03T12:45:03;28.50;75.70
16102;DHT22;56411;52.964;10.540;2022-09-03T12:47:30;28.60;75.80
16102;DHT22;56411;52.964;10.540;2022-09-03T12:50:06;29.20;74.50
16102;DHT22;56411;52.964;10.540;2022-09-03T12:52:37;29.50;73.60
16102;DHT22;56411;52.964;10.540;2022-09-03T12:55:14;29.10;75.40
16102;DHT22;56411;52.964;10.540;2022-09-03T12:57:47;28.60;74.40
16102;DHT22;56411;52.964;10.540;2022-09-03T13:00:16;28.60;74.50
16102;DHT22;56411;52.964;10.540;2022-09-03T13:02:48;28.70;73.30
16102;DHT22;56411;52.964;10.540;2022-09-03T13:05:20;29.20;73.00
16102;DHT22;56411;52.964;10.540;2022-09-03T13:07:49;29.40;73.50
16102;DHT22;56411;52.964;10.540;2022-09-03T13:10:25;30.00;72.00
16102;DHT22;56411;52.964;10.540;2022-09-03T13:12:58;30.00;71.60
16102;DHT22;56411;52.964;10.540;2022-09-03T13:15:25;30.40;71.90
16102;DHT22;56411;52.964;10.540;2022-09-03T13:18:15;30.70;70.50
16102;DHT22;56411;52.964;10.540;2022-09-03T13:20:53;31.00;69.70
16102;DHT22;56411;52.964;10.540;2022-09-03T13:23:51;30.70;69.30
16102;DHT22;56411;52.964;10.540;2022-09-03T13:26:31;30.50;69.50
16102;DHT22;56411;52.964;10.540;2022-09-03T13:32:01;31.30;67.70
16102;DHT22;56411;52.964;10.540;2022-09-03T13:34:32;31.60;67.70
16102;DHT22;56411;52.964;10.540;2022-09-03T13:37:11;32.00;66.70
16102;DHT22;56411;52.964;10.540;2022-09-03T13:39:47;32.10;67.30
16102;DHT22;56411;52.964;10.540;2022-09-03T13:42:19;32.10;65.20
16102;DHT22;56411;52.964;10.540;2022-09-03T13:44:53;30.50;66.40
16102;DHT22;56411;52.964;10.540;2022-09-03T13:47:27;29.90;67.10
16102;DHT22;56411;52.964;10.540;2022-09-03T13:50:02;29.80;67.50
16102;DHT22;56411;52.964;10.540;2022-09-03T13:52:50;28.30;68.80
16102;DHT22;56411;52.964;10.540;2022-09-03T13:55:24;28.30;69.40
16102;DHT22;56411;52.964;10.540;2022-09-03T13:57:55;28.70;69.30
16102;DHT22;56411;52.964;10.540;2022-09-03T14:00:27;29.70;68.10
16102;DHT22;56411;52.964;10.540;2022-09-03T14:03:02;30.50;67.80
16102;DHT22;56411;52.964;10.540;2022-09-03T14:05:40;30.50;66.80
16102;DHT22;56411;52.964;10.540;2022-09-03T14:08:19;30.30;65.50
16102;DHT22;56411;52.964;10.540;2022-09-03T14:10:59;30.20;66.10
16102;DHT22;56411;52.964;10.540;2022-09-03T14:13:45;30.20;65.00
16102;DHT22;56411;52.964;10.540;2022-09-03T14:16:23;30.70;67.40
16102;DHT22;56411;52.964;10.540;2022-09-03T14:18:55;31.30;64.20
16102;DHT22;56411;52.964;10.540;2022-09-03T14:21:27;31.40;65.20
16102;DHT22;56411;52.964;10.540;2022-09-03T14:24:03;31.80;65.20
16102;DHT22;56411;52.964;10.540;2022-09-03T14:26:33;32.10;63.90
16102;DHT22;56411;52.964;10.540;2022-09-03T14:29:05;32.50;64.90
16102;DHT22;56411;52.964;10.540;2022-09-03T14:32:00;32.80;63.50
16102;DHT22;56411;52.964;10.540;2022-09-03T14:34:38;32.60;63.40
16102;DHT22;56411;52.964;10.540;2022-09-03T14:37:16;32.20;63.80
16102;DHT22;56411;52.964;10.540;2022-09-03T14:39:53;32.70;61.70
16102;DHT22;56411;52.964;10.540;2022-09-03T14:42:38;32.50;62.40
16102;DHT22;56411;52.964;10.540;2022-09-03T14:45:24;30.90;63.10
16102;DHT22;56411;52.964;10.540;2022-09-03T14:48:11;30.10;65.20
16102;DHT22;56411;52.964;10.540;2022-09-03T14:50:55;30.70;64.80
16102;DHT22;56411;52.964;10.540;2022-09-03T14:53:49;30.20;64.50
16102;DHT22;56411;52.964;10.540;2022-09-03T14:56:32;31.00;64.40
16102;DHT22;56411;52.964;10.540;2022-09-03T14:59:22;31.50;63.00
16102;DHT22;56411;52.964;10.540;2022-09-03T15:02:14;32.10;62.40
16102;DHT22;56411;52.964;10.540;2022-09-03T15:04:53;32.10;62.20
16102;DHT22;56411;52.964;10.540;2022-09-03T15:07:29;31.60;62.30
16102;DHT22;56411;52.964;10.540;2022-09-03T15:10:03;31.60;62.10
16102;DHT22;56411;52.964;10.540;2022-09-03T15:12:36;31.30;63.10
16102;DHT22;56411;52.964;10.540;2022-09-03T15:15:09;31.10;63.30
16102;DHT22;56411;52.964;10.540;2022-09-03T15:17:46;31.20;62.60
16102;DHT22;56411;52.964;10.540;2022-09-03T15:20:21;30.90;62.70
16102;DHT22;56411;52.964;10.540;2022-09-03T15:23:19;30.70;64.30
16102;DHT22;56411;52.964;10.540;2022-09-03T15:26:29;31.30;63.70
16102;DHT22;56411;52.964;10.540;2022-09-03T15:29:15;31.40;63.70
16102;DHT22;56411;52.964;10.540;2022-09-03T15:31:49;31.10;63.50
16102;DHT22;56411;52.964;10.540;2022-09-03T15:34:51;31.30;62.50
16102;DHT22;56411;52.964;10.540;2022-09-03T15:37:26;31.20;62.00
16102;DHT22;56411;52.964;10.540;2022-09-03T15:40:00;30.20;63.90
16102;DHT22;56411;52.964;10.540;2022-09-03T15:42:29;29.60;64.40
16102;DHT22;56411;52.964;10.540;2022-09-03T15:45:02;29.40;65.80
16102;DHT22;56411;52.964;10.540;2022-09-03T15:47:40;29.00;66.40
16102;DHT22;56411;52.964;10.540;2022-09-03T15:50:24;28.60;66.20
16102;DHT22;56411;52.964;10.540;2022-09-03T15:53:00;28.40;66.20
16102;DHT22;56411;52.964;10.540;2022-09-03T15:55:32;27.90;67.40
16102;DHT22;56411;52.964;10.540;2022-09-03T15:58:05;27.70;67.60
16102;DHT22;56411;52.964;10.540;2022-09-03T16:00:49;27.40;67.70